sensor_id;sensor_type;location;lat;lon;timestamp;pressure;altitude;pressure_sealevel;temperature;humidity
74913;BME280;63878;55.624;37.304;2023-06-22T00:03:49;99211.69;;;14.25;42.26
74913;BME280;63878;55.624;37.304;2023-06-22T00:13:49;99211.31;;;13.86;44.76
74913;BME280;63878;55.624;37.304;2023-06-22T00:23:50;99209.03;;;13.38;40.05
74913;BME280;63878;55.624;37.304;2023-06-22T00:33:50;99210.41;;;12.79;41.23
74913;BME280;63878;55.624;37.304;2023-06-22T00:43:51;99196.63;;;12.48;45.86
74913;BME280;63878;55.624;37.304;2023-06-22T00:53:51;99214.00;;;12.87;44.29
74913;BME280;63878;55.624;37.304;2023-06-22T01:03:52;99215.00;;;12.49;41.95
74913;BME280;63878;55.624;37.304;2023-06-22T01:14:12;99224.47;;;12.05;43.78
74913;BME280;63878;55.624;37.304;2023-06-22T01:24:27;99216.75;;;12.58;41.62
74913;BME280;63878;55.624;37.304;2023-06-22T01:34:31;99215.56;;;13.61;44.58
74913;BME280;63878;55.624;37.304;2023-06-22T01:44:34;99218.88;;;15.01;41.02
74913;BME280;63878;55.624;37.304;2023-06-22T01:54:34;99209.38;;;14.56;37.76
74913;BME280;63878;55.624;37.304;2023-06-22T02:04:46;99219.47;;;12.86;40.15
74913;BME280;63878;55.624;37.304;2023-06-22T02:14:48;99229.66;;;13.62;39.80
74913;BME280;63878;55.624;37.304;2023-06-22T02:24:49;99208.00;;;14.44;38.24
74913;BME280;63878;55.624;37.304;2023-06-22T02:34:49;99206.03;;;15.55;40.97
74913;BME280;63878;55.624;37.304;2023-06-22T02:44:49;99199.44;;;18.01;36.69
74913;BME280;63878;55.624;37.304;2023-06-22T02:54:50;99198.81;;;19.09;34.83
74913;BME280;63878;55.624;37.304;2023-06-22T03:04:50;99180.16;;;19.59;33.81
74913;BME280;63878;55.624;37.304;2023-06-22T03:14:51;99188.25;;;18.86;32.86
74913;BME280;63878;55.624;37.304;2023-06-22T03:24:51;99194.97;;;18.61;35.11
74913;BME280;63878;55.624;37.304;2023-06-22T03:34:52;99179.69;;;20.74;32.09
74913;BME280;63878;55.624;37.304;2023-06-22T03:44:52;99156.94;;;21.31;30.64
74913;BME280;63878;55.624;37.304;2023-06-22T03:54:53;99143.34;;;21.79;29.48
74913;BME280;63878;55.624;37.304;2023-06-22T04:04:53;99170.41;;;22.10;29.53
74913;BME280;63878;55.624;37.304;2023-06-22T04:14:53;99158.66;;;22.76;28.52
74913;BME280;63878;55.624;37.304;2023-06-22T04:24:54;99150.75;;;22.17;29.47
74913;BME280;63878;55.624;37.304;2023-06-22T04:34:54;99149.69;;;22.31;28.94
74913;BME280;63878;55.624;37.304;2023-06-22T04:44:55;99167.16;;;22.60;28.90
74913;BME280;63878;55.624;37.304;2023-06-22T04:54:55;99153.91;;;22.58;28.74
74913;BME280;63878;55.624;37.304;2023-06-22T05:04:56;99134.13;;;22.39;29.12
74913;BME280;63878;55.624;37.304;2023-06-22T05:14:56;99153.66;;;23.49;26.88
74913;BME280;63878;55.624;37.304;2023-06-22T05:24:57;99152.78;;;24.61;25.65
74913;BME280;63878;55.624;37.304;2023-06-22T05:34:58;99159.06;;;24.73;24.91
74913;BME280;63878;55.624;37.304;2023-06-22T05:44:58;99151.97;;;25.20;24.07
74913;BME280;63878;55.624;37.304;2023-06-22T05:54:59;99140.75;;;25.05;24.08
74913;BME280;63878;55.624;37.304;2023-06-22T06:04:59;99136.41;;;25.04;24.41
74913;BME280;63878;55.624;37.304;2023-06-22T06:15:00;99132.00;;;23.63;25.84
74913;BME280;63878;55.624;37.304;2023-06-22T06:25:00;99133.53;;;24.87;25.76
74913;BME280;63878;55.624;37.304;2023-06-22T06:35:01;99136.75;;;23.04;27.28
74913;BME280;63878;55.624;37.304;2023-06-22T06:45:01;99141.59;;;24.39;26.48
74913;BME280;63878;55.624;37.304;2023-06-22T06:55:02;99140.03;;;22.10;24.15
74913;BME280;63878;55.624;37.304;2023-06-22T07:05:03;99122.38;;;19.43;28.29
74913;BME280;63878;55.624;37.304;2023-06-22T07:15:05;99129.66;;;24.28;26.44
74913;BME280;63878;55.624;37.304;2023-06-22T07:25:07;99117.69;;;23.62;26.85
74913;BME280;63878;55.624;37.304;2023-06-22T07:35:08;99103.53;;;23.67;27.10
74913;BME280;63878;55.624;37.304;2023-06-22T07:45:09;99108.25;;;23.71;26.60
74913;BME280;63878;55.624;37.304;2023-06-22T07:55:09;99102.75;;;23.85;26.46
74913;BME280;63878;55.624;37.304;2023-06-22T08:05:10;99087.97;;;23.87;26.43
74913;BME280;63878;55.624;37.304;2023-06-22T08:15:11;99096.13;;;23.37;26.55
74913;BME280;63878;55.624;37.304;2023-06-22T08:25:11;99094.97;;;23.20;26.87
74913;BME280;63878;55.624;37.304;2023-06-22T08:35:12;99090.38;;;21.93;27.42
74913;BME280;63878;55.624;37.304;2023-06-22T08:45:12;99082.47;;;22.24;28.51
74913;BME280;63878;55.624;37.304;2023-06-22T08:55:13;99064.16;;;19.86;28.73
74913;BME280;63878;55.624;37.304;2023-06-22T09:05:14;99060.19;;;20.71;29.80
74913;BME280;63878;55.624;37.304;2023-06-22T09:15:14;99049.88;;;21.87;29.61
74913;BME280;63878;55.624;37.304;2023-06-22T09:25:15;99053.78;;;22.11;28.94
74913;BME280;63878;55.624;37.304;2023-06-22T09:35:15;99042.03;;;20.67;28.84
74913;BME280;63878;55.624;37.304;2023-06-22T09:45:16;99040.69;;;19.88;28.80
74913;BME280;63878;55.624;37.304;2023-06-22T09:55:16;99022.91;;;21.10;30.21
74913;BME280;63878;55.624;37.304;2023-06-22T10:05:17;99017.94;;;20.80;30.33
74913;BME280;63878;55.624;37.304;2023-06-22T10:15:18;99009.47;;;21.49;30.03
74913;BME280;63878;55.624;37.304;2023-06-22T10:25:18;98988.84;;;21.03;29.88
74913;BME280;63878;55.624;37.304;2023-06-22T10:35:19;98978.09;;;21.95;29.50
74913;BME280;63878;55.624;37.304;2023-06-22T10:45:19;98970.94;;;21.88;29.63
74913;BME280;63878;55.624;37.304;2023-06-22T10:55:19;98942.53;;;21.99;29.61
74913;BME280;63878;55.624;37.304;2023-06-22T11:05:20;98938.38;;;22.10;28.92
74913;BME280;63878;55.624;37.304;2023-06-22T11:15:20;98930.81;;;22.32;28.82
74913;BME280;63878;55.624;37.304;2023-06-22T11:25:21;98930.03;;;21.02;29.71
74913;BME280;63878;55.624;37.304;2023-06-22T11:35:21;98924.94;;;20.06;28.80
74913;BME280;63878;55.624;37.304;2023-06-22T11:45:22;98915.69;;;21.34;29.87
74913;BME280;63878;55.624;37.304;2023-06-22T11:55:22;98904.81;;;20.43;27.73
74913;BME280;63878;55.624;37.304;2023-06-22T12:05:23;98891.81;;;20.53;29.42
74913;BME280;63878;55.624;37.304;2023-06-22T12:15:23;98877.38;;;21.66;29.11
74913;BME280;63878;55.624;37.304;2023-06-22T12:25:24;98861.41;;;22.40;28.43
74913;BME280;63878;55.624;37.304;2023-06-22T12:35:24;98867.09;;;21.94;29.38
74913;BME280;63878;55.624;37.304;2023-06-22T12:45:25;98839.56;;;21.67;29.71
74913;BME280;63878;55.624;37.304;2023-06-22T12:55:25;98837.59;;;22.19;28.82
74913;BME280;63878;55.624;37.304;2023-06-22T13:05:26;98831.13;;;21.95;29.77
74913;BME280;63878;55.624;37.304;2023-06-22T13:15:28;98819.97;;;21.08;28.64
74913;BME280;63878;55.624;37.304;2023-06-22T13:25:28;98806.69;;;22.28;29.34
74913;BME280;63878;55.624;37.304;2023-06-22T13:35:29;98799.78;;;22.39;28.91
74913;BME280;63878;55.624;37.304;2023-06-22T13:45:29;98784.56;;;22.51;28.96
74913;BME280;63878;55.624;37.304;2023-06-22T13:55:30;98784.69;;;22.13;29.44
74913;BME280;63878;55.624;37.304;2023-06-22T14:05:30;98782.00;;;22.38;29.09
74913;BME280;63878;55.624;37.304;2023-06-22T14:15:31;98781.50;;;22.48;28.57
74913;BME280;63878;55.624;37.304;2023-06-22T14:25:31;98778.91;;;22.59;28.53
74913;BME280;63878;55.624;37.304;2023-06-22T14:35:32;98764.19;;;22.19;28.30
74913;BME280;63878;55.624;37.304;2023-06-22T14:45:32;98767.19;;;22.04;29.22
74913;BME280;63878;55.624;37.304;2023-06-22T14:55:33;98728.34;;;22.00;29.17
74913;BME280;63878;55.624;37.304;2023-06-22T15:05:33;98747.94;;;22.07;29.24
74913;BME280;63878;55.624;37.304;2023-06-22T15:15:34;98739.28;;;22.30;28.47
74913;BME280;63878;55.624;37.304;2023-06-22T15:25:34;98728.66;;;22.35;28.94
74913;BME280;63878;55.624;37.304;2023-06-22T15:35:35;98728.03;;;22.14;28.95
74913;BME280;63878;55.624;37.304;2023-06-22T15:45:35;98723.91;;;22.12;29.10
74913;BME280;63878;55.624;37.304;2023-06-22T15:55:35;98719.06;;;22.21;29.20
74913;BME280;63878;55.624;37.304;2023-06-22T16:05:36;98708.38;;;21.89;29.44
74913;BME280;63878;55.624;37.304;2023-06-22T16:15:36;98699.38;;;22.27;28.92
74913;BME280;63878;55.624;37.304;2023-06-22T16:25:37;98697.56;;;22.21;29.34
74913;BME280;63878;55.624;37.304;2023-06-22T16:35:37;98688.22;;;22.05;29.73
74913;BME280;63878;55.624;37.304;2023-06-22T16:45:38;98681.81;;;21.99;29.49
74913;BME280;63878;55.624;37.304;2023-06-22T16:55:38;98680.88;;;21.87;29.88
74913;BME280;63878;55.624;37.304;2023-06-22T17:05:40;98667.91;;;21.59;30.65
74913;BME280;63878;55.624;37.304;2023-06-22T17:15:42;98671.28;;;21.48;30.63
74913;BME280;63878;55.624;37.304;2023-06-22T17:25:45;98668.06;;;21.32;31.00
74913;BME280;63878;55.624;37.304;2023-06-22T17:35:48;98674.31;;;19.57;33.67
74913;BME280;63878;55.624;37.304;2023-06-22T17:45:48;98693.69;;;18.16;36.23
74913;BME280;63878;55.624;37.304;2023-06-22T17:55:52;98712.75;;;17.42;37.94
74913;BME280;63878;55.624;37.304;2023-06-22T18:05:54;98704.69;;;17.56;36.97
74913;BME280;63878;55.624;37.304;2023-06-22T18:15:55;98724.03;;;18.08;36.32
74913;BME280;63878;55.624;37.304;2023-06-22T18:25:55;98711.41;;;17.74;37.11
74913;BME280;63878;55.624;37.304;2023-06-22T18:35:56;98714.28;;;17.51;37.31
74913;BME280;63878;55.624;37.304;2023-06-22T18:46:38;98717.88;;;17.22;38.09
74913;BME280;63878;55.624;37.304;2023-06-22T18:56:51;98715.97;;;17.16;38.74
74913;BME280;63878;55.624;37.304;2023-06-22T19:16:59;98706.28;;;16.64;39.35
74913;BME280;63878;55.624;37.304;2023-06-22T19:27:00;98703.44;;;16.36;40.13
74913;BME280;63878;55.624;37.304;2023-06-22T19:37:00;98705.06;;;16.22;40.57
74913;BME280;63878;55.624;37.304;2023-06-22T19:47:01;98678.03;;;15.81;41.08
74913;BME280;63878;55.624;37.304;2023-06-22T19:57:02;98685.25;;;14.56;44.34
74913;BME280;63878;55.624;37.304;2023-06-22T20:07:05;98683.75;;;13.98;46.33
74913;BME280;63878;55.624;37.304;2023-06-22T20:17:06;98668.00;;;13.64;47.19
74913;BME280;63878;55.624;37.304;2023-06-22T20:27:11;98645.63;;;13.42;47.90
74913;BME280;63878;55.624;37.304;2023-06-22T20:37:12;98633.69;;;13.30;48.11
74913;BME280;63878;55.624;37.304;2023-06-22T20:47:13;98631.81;;;12.81;48.86
74913;BME280;63878;55.624;37.304;2023-06-22T20:57:13;98639.81;;;13.95;45.93
74913;BME280;63878;55.624;37.304;2023-06-22T21:07:15;98628.56;;;13.61;46.05
74913;BME280;63878;55.624;37.304;2023-06-22T21:17:17;98620.44;;;13.30;46.53
74913;BME280;63878;55.624;37.304;2023-06-22T21:27:17;98618.13;;;13.10;47.72
74913;BME280;63878;55.624;37.304;2023-06-22T21:37:18;98595.56;;;13.88;45.77
74913;BME280;63878;55.624;37.304;2023-06-22T21:47:18;98584.97;;;13.39;46.38
74913;BME280;63878;55.624;37.304;2023-06-22T21:57:18;98562.31;;;13.28;46.60
74913;BME280;63878;55.624;37.304;2023-06-22T22:07:19;98567.50;;;14.32;44.36
74913;BME280;63878;55.624;37.304;2023-06-22T22:17:20;98531.06;;;14.80;42.11
74913;BME280;63878;55.624;37.304;2023-06-22T22:27:20;98559.97;;;15.21;43.19
74913;BME280;63878;55.624;37.304;2023-06-22T22:37:21;98547.72;;;15.12;43.04
74913;BME280;63878;55.624;37.304;2023-06-22T22:47:21;98550.25;;;15.13;41.18
74913;BME280;63878;55.624;37.304;2023-06-22T22:57:22;98545.88;;;14.44;42.31
74913;BME280;63878;55.624;37.304;2023-06-22T23:07:23;98536.84;;;15.07;43.04
74913;BME280;63878;55.624;37.304;2023-06-22T23:17:24;98546.56;;;16.11;41.34
74913;BME280;63878;55.624;37.304;2023-06-22T23:27:26;98535.47;;;15.26;41.31
74913;BME280;63878;55.624;37.304;2023-06-22T23:37:26;98524.28;;;14.47;42.99
74913;BME280;63878;55.624;37.304;2023-06-22T23:47:26;98517.59;;;14.82;44.06
74913;BME280;63878;55.624;37.304;2023-06-22T23:57:27;98510.09;;;14.00;44.15
